Tremonton, Utah
Current Conditions -  °F | °C
As of 8:55 PM on Sunday 23 Nov 2014 (Local Time) from KBMC Reporting Station
Overcast Overcast  
Wind Chill: -2°   Ceiling: 6500
Heat Index:   Visibility: 10mi
Dew Point: -4°   Wind: 7mph
Humidity: 68%   Direction: 200°SSW
Pressure: 30.22"   Gusts: NA
Location:  41.71°N, 112.17°W
Report Text: KBMC 240355Z AUTO 20006KT 10SM OVC065 01/M04 A3022 RMK AO1 T00131041
Loading
Personal Weather Stations






























Interactive Weather Map New forecast layout! Learn more

10-Day Weather Forecast

Advertisements
Track Severe Weather on mobile